createdAt,value
2022-10-04T00:01:47.478Z,100554.84
2022-10-04T00:04:20.108Z,100539.84
2022-10-04T00:06:59.065Z,100544.91
2022-10-04T00:09:37.702Z,100551.75
2022-10-04T00:12:06.198Z,100558.50
2022-10-04T00:14:38.969Z,100556.97
2022-10-04T00:17:12.649Z,100560.22
2022-10-04T00:19:41.964Z,100562.50
2022-10-04T00:22:12.718Z,100567.50
2022-10-04T00:25:08.548Z,100561.31
2022-10-04T00:27:37.078Z,100558.66
2022-10-04T00:30:03.857Z,100562.03
2022-10-04T00:32:42.419Z,100558.75
2022-10-04T00:35:27.302Z,100553.06
2022-10-04T00:38:15.163Z,100555.94
2022-10-04T00:41:14.878Z,100556.72
2022-10-04T00:43:47.991Z,100549.56
2022-10-04T00:46:23.233Z,100552.19
2022-10-04T00:48:53.066Z,100550.66
2022-10-04T00:51:22.965Z,100551.78
2022-10-04T00:54:01.897Z,100554.59
2022-10-04T00:56:56.156Z,100552.94
2022-10-04T00:59:38.295Z,100550.28
2022-10-04T01:02:14.616Z,100548.44
2022-10-04T01:04:44.425Z,100551.03
2022-10-04T01:07:15.663Z,100556.34
2022-10-04T01:09:57.171Z,100558.97
2022-10-04T01:12:36.512Z,100550.91
2022-10-04T01:15:09.390Z,100566.13
2022-10-04T01:17:36.377Z,100566.91
2022-10-04T01:20:32.349Z,100560.59
2022-10-04T01:22:59.338Z,100566.41
2022-10-04T01:25:48.122Z,100558.16
2022-10-04T01:28:15.571Z,100556.44
2022-10-04T01:30:43.615Z,100566.78
2022-10-04T01:33:12.726Z,100570.38
2022-10-04T01:35:40.129Z,100564.03
2022-10-04T01:38:07.817Z,100571.50
2022-10-04T01:40:39.963Z,100574.47
2022-10-04T01:43:10.521Z,100573.53
2022-10-04T01:45:50.346Z,100583.84
2022-10-04T01:48:26.396Z,100590.22
2022-10-04T01:50:53.247Z,100586.56
2022-10-04T01:53:28.681Z,100589.22
2022-10-04T01:56:05.323Z,100588.22
2022-10-04T01:58:41.760Z,100585.94
2022-10-04T02:01:26.823Z,100583.47
2022-10-04T02:04:32.113Z,100594.00
2022-10-04T02:07:01.890Z,100585.53
2022-10-04T02:09:34.092Z,100584.94
2022-10-04T02:12:01.799Z,100583.91
2022-10-04T02:14:35.737Z,100573.91
2022-10-04T02:17:10.766Z,100584.34
2022-10-04T02:19:42.658Z,100586.13
2022-10-04T02:22:11.310Z,100589.81
2022-10-04T02:24:48.738Z,100597.69
2022-10-04T02:27:16.428Z,100599.59
2022-10-04T02:29:43.448Z,100607.59
2022-10-04T02:32:31.999Z,100605.75
2022-10-04T02:34:59.237Z,100616.22
2022-10-04T02:37:28.789Z,100620.06
2022-10-04T02:40:05.489Z,100609.34
2022-10-04T02:42:41.485Z,100616.41
2022-10-04T02:45:33.468Z,100619.97
2022-10-04T02:48:27.698Z,100623.75
2022-10-04T02:50:57.126Z,100625.81
2022-10-04T02:53:45.235Z,100631.13
2022-10-04T02:56:13.409Z,100638.56
2022-10-04T02:58:41.929Z,100634.94
2022-10-04T03:01:24.603Z,100629.81
2022-10-04T03:03:52.507Z,100622.69
2022-10-04T03:06:20.819Z,100619.16
2022-10-04T03:08:47.605Z,100628.88
2022-10-04T03:11:16.124Z,100640.34
2022-10-04T03:13:47.592Z,100647.28
2022-10-04T03:16:15.539Z,100646.72
2022-10-04T03:18:44.401Z,100653.38
2022-10-04T03:21:16.038Z,100666.06
2022-10-04T03:23:43.704Z,100670.44
2022-10-04T03:26:31.621Z,100671.06
2022-10-04T03:28:59.641Z,100682.69
2022-10-04T03:31:28.455Z,100680.88
2022-10-04T03:33:57.438Z,100677.81
2022-10-04T03:36:26.570Z,100679.31
2022-10-04T03:38:56.424Z,100676.66
2022-10-04T03:41:26.096Z,100689.94
2022-10-04T03:43:55.634Z,100686.34
2022-10-04T03:46:25.517Z,100695.13
2022-10-04T03:48:55.334Z,100688.38
2022-10-04T03:51:24.918Z,100703.44
2022-10-04T03:53:55.781Z,100700.75
2022-10-04T03:56:28.402Z,100695.59
2022-10-04T03:58:56.203Z,100699.91
2022-10-04T04:01:38.833Z,100704.25
2022-10-04T04:04:17.812Z,100711.00
2022-10-04T04:07:03.853Z,100725.91
2022-10-04T04:10:00.024Z,100724.28
2022-10-04T04:12:34.326Z,100726.19
2022-10-04T04:15:02.762Z,100719.91
2022-10-04T04:17:36.934Z,100730.09
2022-10-04T04:20:11.937Z,100727.84
2022-10-04T04:22:41.019Z,100733.44
2022-10-04T04:25:14.727Z,100732.34
2022-10-04T04:27:44.236Z,100752.03
2022-10-04T04:30:17.019Z,100750.44
2022-10-04T04:32:52.764Z,100752.22
2022-10-04T04:35:32.727Z,100747.06
2022-10-04T04:38:05.298Z,100747.72
2022-10-04T04:40:32.897Z,100756.91
2022-10-04T04:43:03.099Z,100765.91
2022-10-04T04:45:32.828Z,100763.59
2022-10-04T04:48:01.446Z,100772.16
2022-10-04T04:50:35.787Z,100780.09
2022-10-04T04:53:14.689Z,100778.75
2022-10-04T04:56:02.912Z,100773.31
2022-10-04T04:58:36.078Z,100776.13
2022-10-04T05:01:18.732Z,100780.53
2022-10-04T05:03:59.605Z,100781.91
2022-10-04T05:06:28.746Z,100787.00
2022-10-04T05:08:55.658Z,100784.06
2022-10-04T05:11:29.392Z,100779.63
2022-10-04T05:14:12.710Z,100779.06
2022-10-04T05:16:44.337Z,100783.81
2022-10-04T05:19:21.723Z,100791.72
2022-10-04T05:21:50.878Z,100787.16
2022-10-04T05:24:20.982Z,100791.34
2022-10-04T05:26:57.049Z,100809.72
2022-10-04T05:29:28.209Z,100805.50
2022-10-04T05:32:24.157Z,100810.00
2022-10-04T05:34:51.393Z,100817.09
2022-10-04T05:37:53.462Z,100814.69
2022-10-04T05:40:26.178Z,100812.34
2022-10-04T05:42:55.304Z,100816.59
2022-10-04T05:45:26.139Z,100824.84
2022-10-04T05:47:55.863Z,100825.41
2022-10-04T05:50:41.309Z,100832.03
2022-10-04T05:53:27.148Z,100832.78
2022-10-04T05:56:30.374Z,100827.63
2022-10-04T05:59:21.658Z,100836.44
2022-10-04T06:02:44.247Z,100835.75
2022-10-04T06:05:20.382Z,100831.09
2022-10-04T06:08:26.207Z,100837.50
2022-10-04T06:10:55.742Z,100841.41
2022-10-04T06:13:33.252Z,100842.38
2022-10-04T06:16:20.547Z,100848.16
2022-10-04T06:19:09.117Z,100838.38
2022-10-04T06:22:14.266Z,100848.22
2022-10-04T06:24:45.556Z,100847.63
2022-10-04T06:27:22.482Z,100846.59
2022-10-04T06:30:13.987Z,100847.63
2022-10-04T06:33:08.081Z,100865.16
2022-10-04T06:35:41.029Z,100858.84
2022-10-04T06:38:47.169Z,100866.56
2022-10-04T06:41:35.365Z,100868.03
2022-10-04T06:44:27.543Z,100861.56
2022-10-04T06:47:39.077Z,100863.34
2022-10-04T06:50:19.791Z,100867.16
2022-10-04T06:52:55.710Z,100867.16
2022-10-04T06:55:46.416Z,100871.59
2022-10-04T06:58:13.242Z,100863.34
2022-10-04T07:00:52.371Z,100868.91
2022-10-04T07:03:51.434Z,100865.91
2022-10-04T07:06:27.842Z,100863.50
2022-10-04T07:09:02.439Z,100865.94
2022-10-04T07:11:37.805Z,100873.72
2022-10-04T07:14:16.235Z,100870.09
2022-10-04T07:17:22.399Z,100872.19
2022-10-04T07:19:52.245Z,100874.22
2022-10-04T07:22:47.677Z,100881.44
2022-10-04T07:25:30.741Z,100887.97
2022-10-04T07:28:29.237Z,100889.91
2022-10-04T07:31:03.831Z,100902.84
2022-10-04T07:33:35.748Z,100904.44
2022-10-04T07:36:24.346Z,100902.22
2022-10-04T07:39:00.305Z,100908.22
2022-10-04T07:41:34.028Z,100903.75
2022-10-04T07:44:16.188Z,100900.41
2022-10-04T07:46:43.054Z,100915.44
2022-10-04T07:49:20.894Z,100909.69
2022-10-04T07:52:26.697Z,100915.31
2022-10-04T07:55:08.560Z,100917.19
2022-10-04T07:58:14.296Z,100909.75
2022-10-04T08:00:49.633Z,100901.81
2022-10-04T08:03:56.645Z,100912.34
2022-10-04T08:06:40.070Z,100909.94
2022-10-04T08:09:29.942Z,100911.59
2022-10-04T08:12:02.886Z,100911.53
2022-10-04T08:14:36.340Z,100914.97
2022-10-04T08:17:21.835Z,100907.00
2022-10-04T08:19:48.743Z,100905.38
2022-10-04T08:22:23.996Z,100900.78
2022-10-04T08:25:09.694Z,100915.31
2022-10-04T08:28:19.559Z,100914.28
2022-10-04T08:31:15.997Z,100917.50
2022-10-04T08:34:16.612Z,100923.78
2022-10-04T08:37:20.845Z,100934.56
2022-10-04T08:40:18.559Z,100926.06
2022-10-04T08:42:57.376Z,100932.91
2022-10-04T08:46:06.253Z,100934.13
2022-10-04T08:49:18.101Z,100930.25
2022-10-04T08:52:20.036Z,100931.31
2022-10-04T08:55:20.207Z,100933.44
2022-10-04T08:58:25.726Z,100941.88
2022-10-04T09:00:55.954Z,100940.19
2022-10-04T09:03:36.897Z,100946.38
2022-10-04T09:06:32.038Z,100945.13
2022-10-04T09:09:17.700Z,100948.78
2022-10-04T09:12:05.838Z,100952.28
2022-10-04T09:14:48.596Z,100957.97
2022-10-04T09:17:23.088Z,100951.22
2022-10-04T09:19:50.300Z,100956.28
2022-10-04T09:22:46.873Z,100956.22
2022-10-04T09:25:24.873Z,100956.41
2022-10-04T09:28:21.185Z,100951.75
2022-10-04T09:31:13.133Z,100954.50
2022-10-04T09:33:53.050Z,100956.16
2022-10-04T09:36:41.621Z,100951.59
2022-10-04T09:39:29.051Z,100952.06
2022-10-04T09:42:25.926Z,100957.91
2022-10-04T09:45:10.976Z,100958.34
2022-10-04T09:47:46.067Z,100962.66
2022-10-04T09:50:37.365Z,100966.34
2022-10-04T09:53:26.182Z,100967.78
2022-10-04T09:56:05.201Z,100974.88
2022-10-04T09:58:53.396Z,100976.09
2022-10-04T10:01:29.658Z,100972.00
2022-10-04T10:04:28.516Z,100978.97
2022-10-04T10:07:13.990Z,100970.63
2022-10-04T10:10:02.205Z,100966.56
2022-10-04T10:13:21.535Z,100981.53
2022-10-04T10:16:30.378Z,100983.97
2022-10-04T10:19:06.155Z,100988.38
2022-10-04T10:22:02.266Z,100996.44
2022-10-04T10:25:05.526Z,100991.72
2022-10-04T10:27:41.694Z,100996.38
2022-10-04T10:30:25.810Z,100987.50
2022-10-04T10:33:31.355Z,100991.41
2022-10-04T10:36:10.608Z,100991.81
2022-10-04T10:38:53.522Z,100991.91
2022-10-04T10:41:35.844Z,100993.13
2022-10-04T10:44:20.634Z,100988.31
2022-10-04T10:46:59.439Z,100991.03
2022-10-04T10:49:48.419Z,100989.28
2022-10-04T10:52:46.289Z,100994.78
2022-10-04T10:56:16.871Z,100990.75
2022-10-04T10:58:58.642Z,100985.00
2022-10-04T11:02:05.891Z,100990.13
2022-10-04T11:05:04.237Z,100995.72
2022-10-04T11:07:53.544Z,100996.69
2022-10-04T11:10:55.318Z,100994.84
2022-10-04T11:13:42.474Z,100993.09
2022-10-04T11:16:19.702Z,101001.09
2022-10-04T11:19:29.435Z,101005.81
2022-10-04T11:22:17.314Z,100995.75
2022-10-04T11:25:18.321Z,101006.38
2022-10-04T11:28:24.374Z,101007.13
2022-10-04T11:31:07.271Z,101004.03
2022-10-04T11:34:00.130Z,101013.28
2022-10-04T11:36:56.491Z,101011.31
2022-10-04T11:39:53.908Z,101006.75
2022-10-04T11:42:37.730Z,101017.09
2022-10-04T11:45:38.522Z,101014.75
2022-10-04T11:48:27.943Z,101022.16
2022-10-04T11:51:11.161Z,101021.69
2022-10-04T11:54:09.694Z,101023.16
2022-10-04T11:56:56.577Z,101021.63
2022-10-04T11:59:29.508Z,101028.66
2022-10-04T12:02:17.182Z,101009.25
2022-10-04T12:05:14.999Z,101019.63
2022-10-04T12:08:01.614Z,101020.28
2022-10-04T12:10:38.887Z,101020.47
2022-10-04T12:13:14.866Z,101019.53
2022-10-04T12:15:58.370Z,101015.91
2022-10-04T12:18:50.062Z,101016.72
2022-10-04T12:21:31.544Z,101020.06
2022-10-04T12:24:19.702Z,101022.50
2022-10-04T12:27:24.486Z,101024.25
2022-10-04T12:30:20.959Z,101021.78
2022-10-04T12:32:47.737Z,101031.06
2022-10-04T12:35:14.693Z,101027.75
2022-10-04T12:38:11.952Z,101027.72
2022-10-04T12:41:00.305Z,101028.31
2022-10-04T12:43:38.580Z,101030.13
2022-10-04T12:46:19.245Z,101036.25
2022-10-04T12:49:04.808Z,101034.00
2022-10-04T12:51:53.033Z,101031.78
2022-10-04T12:54:34.945Z,101023.22
2022-10-04T12:57:17.004Z,101031.06
2022-10-04T13:00:17.808Z,101037.56
2022-10-04T13:03:06.149Z,101035.09
2022-10-04T13:05:54.676Z,101034.97
2022-10-04T13:08:39.573Z,101034.16
2022-10-04T13:11:42.308Z,101034.38
2022-10-04T13:14:28.345Z,101036.44
2022-10-04T13:17:27.124Z,101042.44
2022-10-04T13:20:27.177Z,101036.47
2022-10-04T13:23:30.863Z,101040.75
2022-10-04T13:26:26.602Z,101042.22
2022-10-04T13:29:20.449Z,101032.53
2022-10-04T13:32:05.389Z,101044.75
2022-10-04T13:34:46.725Z,101049.31
2022-10-04T13:37:24.858Z,101042.78
2022-10-04T13:39:54.423Z,101033.38
2022-10-04T13:42:52.512Z,101034.94
2022-10-04T13:45:34.954Z,101047.09
2022-10-04T13:48:07.199Z,101053.06
2022-10-04T13:51:03.614Z,101052.75
2022-10-04T13:54:22.365Z,101056.78
2022-10-04T13:57:12.359Z,101063.25
2022-10-04T14:00:02.806Z,101060.94
2022-10-04T14:02:49.885Z,101067.69
2022-10-04T14:05:41.406Z,101068.28
2022-10-04T14:08:55.466Z,101069.13
2022-10-04T14:11:27.991Z,101065.88
2022-10-04T14:14:33.326Z,101073.75
2022-10-04T14:17:09.029Z,101080.28
2022-10-04T14:20:24.133Z,101078.88
2022-10-04T14:23:33.964Z,101080.63
2022-10-04T14:26:31.198Z,101074.97
2022-10-04T14:29:31.973Z,101083.47
2022-10-04T14:32:35.730Z,101089.91
2022-10-04T14:35:08.375Z,101093.38
2022-10-04T14:37:41.015Z,101099.69
2022-10-04T14:40:30.015Z,101102.81
2022-10-04T14:43:24.600Z,101104.06
2022-10-04T14:45:57.418Z,101099.63
2022-10-04T14:48:36.151Z,101107.31
2022-10-04T14:51:19.651Z,101110.06
2022-10-04T14:53:52.790Z,101113.34
2022-10-04T14:56:32.650Z,101118.06
2022-10-04T14:59:02.778Z,101120.19
2022-10-04T15:01:30.210Z,101119.50
2022-10-04T15:04:14.049Z,101126.59
2022-10-04T15:07:04.144Z,101132.91
2022-10-04T15:09:49.837Z,101131.03
2022-10-04T15:12:51.924Z,101132.09
2022-10-04T15:15:18.988Z,101136.56
2022-10-04T15:17:51.904Z,101140.03
2022-10-04T15:20:27.403Z,101141.81
2022-10-04T15:23:12.922Z,101154.66
2022-10-04T15:25:43.974Z,101147.00
2022-10-04T15:28:32.055Z,101162.53
2022-10-04T15:31:06.433Z,101165.47
2022-10-04T15:33:55.755Z,101165.28
2022-10-04T15:36:28.703Z,101172.97
2022-10-04T15:39:04.973Z,101173.03
2022-10-04T15:41:59.440Z,101179.59
2022-10-04T15:44:29.465Z,101184.34
2022-10-04T15:47:21.989Z,101181.31
2022-10-04T15:50:17.427Z,101187.28
2022-10-04T15:52:54.430Z,101181.28
2022-10-04T15:55:36.332Z,101192.44
2022-10-04T15:58:24.303Z,101190.69
2022-10-04T16:00:58.627Z,101197.00
2022-10-04T16:03:43.859Z,101202.28
2022-10-04T16:06:16.695Z,101200.16
2022-10-04T16:08:49.626Z,101198.31
2022-10-04T16:11:31.519Z,101201.78
2022-10-04T16:14:36.848Z,101200.00
2022-10-04T16:17:21.739Z,101206.28
2022-10-04T16:20:20.103Z,101207.25
2022-10-04T16:23:24.290Z,101217.69
2022-10-04T16:25:56.829Z,101214.13
2022-10-04T16:28:59.265Z,101229.63
2022-10-04T16:32:05.182Z,101236.41
2022-10-04T16:34:45.489Z,101237.88
2022-10-04T16:37:24.369Z,101246.47
2022-10-04T16:40:11.895Z,101244.94
2022-10-04T16:42:54.732Z,101247.75
2022-10-04T16:45:42.041Z,101254.28
2022-10-04T16:48:23.949Z,101259.22
2022-10-04T16:51:02.664Z,101257.31
2022-10-04T16:53:32.751Z,101257.94
2022-10-04T16:56:15.447Z,101265.75
2022-10-04T16:58:53.264Z,101267.22
2022-10-04T17:01:23.076Z,101266.59
2022-10-04T17:04:01.947Z,101262.94
2022-10-04T17:06:36.026Z,101273.34
2022-10-04T17:09:29.393Z,101275.25
2022-10-04T17:12:17.120Z,101284.78
2022-10-04T17:14:55.675Z,101278.41
2022-10-04T17:17:42.014Z,101288.97
2022-10-04T17:20:24.241Z,101294.44
2022-10-04T17:23:29.094Z,101296.50
2022-10-04T17:25:57.275Z,101301.16
2022-10-04T17:28:30.758Z,101296.03
2022-10-04T17:31:05.716Z,101300.69
2022-10-04T17:33:54.342Z,101296.94
2022-10-04T17:36:38.707Z,101296.84
2022-10-04T17:39:28.172Z,101301.94
2022-10-04T17:42:35.408Z,101310.03
2022-10-04T17:45:32.784Z,101312.78
2022-10-04T17:48:27.376Z,101311.81
2022-10-04T17:51:23.104Z,101323.38
2022-10-04T17:54:32.809Z,101326.47
2022-10-04T17:57:03.222Z,101324.53
2022-10-04T17:59:39.467Z,101323.63
2022-10-04T18:02:17.340Z,101328.81
2022-10-04T18:05:15.601Z,101329.97
2022-10-04T18:07:52.166Z,101337.94
2022-10-04T18:10:46.651Z,101337.88
2022-10-04T18:13:21.835Z,101342.34
2022-10-04T18:15:53.372Z,101346.84
2022-10-04T18:18:25.027Z,101355.69
2022-10-04T18:20:54.992Z,101355.00
2022-10-04T18:23:28.399Z,101366.56
2022-10-04T18:26:00.147Z,101373.84
2022-10-04T18:28:27.760Z,101376.88
2022-10-04T18:31:00.538Z,101375.91
2022-10-04T18:33:40.071Z,101375.78
2022-10-04T18:36:17.218Z,101379.41
2022-10-04T18:38:47.386Z,101384.75
2022-10-04T18:41:24.470Z,101395.38
2022-10-04T18:43:59.399Z,101393.69
2022-10-04T18:46:38.866Z,101396.28
2022-10-04T18:49:17.144Z,101395.38
2022-10-04T18:52:14.208Z,101402.41
2022-10-04T18:54:49.658Z,101400.47
2022-10-04T18:57:28.698Z,101404.97
2022-10-04T19:00:28.126Z,101409.28
2022-10-04T19:03:34.042Z,101410.31
2022-10-04T19:06:10.242Z,101411.25
2022-10-04T19:08:42.766Z,101418.31
2022-10-04T19:11:32.095Z,101414.81
2022-10-04T19:14:21.703Z,101420.94
2022-10-04T19:17:14.066Z,101412.03
2022-10-04T19:20:11.423Z,101416.41
2022-10-04T19:23:09.288Z,101420.00
2022-10-04T19:26:29.955Z,101426.22
2022-10-04T19:28:50.852Z,101428.84
2022-10-04T19:31:39.024Z,101433.28
2022-10-04T19:34:20.851Z,101437.59
2022-10-04T19:36:58.714Z,101434.19
2022-10-04T19:39:46.621Z,101439.56
2022-10-04T19:42:27.356Z,101443.97
2022-10-04T19:45:12.626Z,101450.22
2022-10-04T19:47:44.822Z,101455.41
2022-10-04T19:50:25.041Z,101458.00
2022-10-04T19:53:07.702Z,101452.75
2022-10-04T19:55:57.337Z,101465.03
2022-10-04T19:58:47.252Z,101461.66
2022-10-04T20:01:21.374Z,101463.41
2022-10-04T20:04:08.873Z,101464.31
2022-10-04T20:06:38.443Z,101468.69
2022-10-04T20:09:25.751Z,101469.56
2022-10-04T20:11:53.603Z,101467.81
2022-10-04T20:14:23.517Z,101473.97
2022-10-04T20:17:02.502Z,101473.06
2022-10-04T20:19:29.441Z,101471.31
2022-10-04T20:22:18.692Z,101472.19
2022-10-04T20:24:45.534Z,101483.66
2022-10-04T20:27:28.663Z,101481.88
2022-10-04T20:29:57.138Z,101489.72
2022-10-04T20:32:26.773Z,101486.03
2022-10-04T20:34:55.507Z,101478.06
2022-10-04T20:37:42.633Z,101487.75
2022-10-04T20:40:11.117Z,101496.69
2022-10-04T20:42:39.166Z,101494.06
2022-10-04T20:45:08.874Z,101492.22
2022-10-04T20:47:49.898Z,101494.78
2022-10-04T20:50:21.153Z,101488.59
2022-10-04T20:52:53.617Z,101498.34
2022-10-04T20:55:25.336Z,101488.63
2022-10-04T20:57:52.397Z,101498.16
2022-10-04T21:00:22.038Z,101496.41
2022-10-04T21:02:49.548Z,101491.25
2022-10-04T21:05:25.342Z,101497.47
2022-10-04T21:08:15.642Z,101493.13
2022-10-04T21:11:08.694Z,101498.47
2022-10-04T21:14:02.080Z,101491.44
2022-10-04T21:16:46.095Z,101510.00
2022-10-04T21:19:43.193Z,101501.19
2022-10-04T21:22:31.102Z,101489.66
2022-10-04T21:25:04.204Z,101497.59
2022-10-04T21:27:36.693Z,101494.13
2022-10-04T21:30:15.887Z,101496.78
2022-10-04T21:32:43.479Z,101500.28
2022-10-04T21:35:11.728Z,101503.03
2022-10-04T21:37:38.764Z,101503.03
2022-10-04T21:40:06.933Z,101509.19
2022-10-04T21:42:33.980Z,101507.44
2022-10-04T21:45:01.041Z,101510.91
2022-10-04T21:47:27.997Z,101507.41
2022-10-04T21:49:55.274Z,101508.22
2022-10-04T21:52:22.261Z,101508.28
2022-10-04T21:54:49.187Z,101505.56
2022-10-04T21:57:16.225Z,101512.53
2022-10-04T21:59:43.095Z,101509.88
2022-10-04T22:02:10.091Z,101512.44
2022-10-04T22:04:38.360Z,101514.44
2022-10-04T22:07:05.409Z,101514.41
2022-10-04T22:09:34.013Z,101516.94
2022-10-04T22:12:00.979Z,101520.41
2022-10-04T22:14:27.857Z,101520.38
2022-10-04T22:16:54.791Z,101521.09
2022-10-04T22:19:21.796Z,101523.63
2022-10-04T22:21:48.714Z,101514.09
2022-10-04T22:24:18.678Z,101514.97
2022-10-04T22:26:46.291Z,101514.97
2022-10-04T22:29:16.359Z,101522.16
2022-10-04T22:31:49.648Z,101518.69
2022-10-04T22:34:19.376Z,101513.34
2022-10-04T22:36:48.414Z,101519.44
2022-10-04T22:39:18.175Z,101528.25
2022-10-04T22:41:56.127Z,101531.06
2022-10-04T22:44:27.766Z,101524.00
2022-10-04T22:46:57.680Z,101524.72
2022-10-04T22:49:31.805Z,101530.53
2022-10-04T22:52:01.918Z,101530.34
2022-10-04T22:54:32.527Z,101539.06
2022-10-04T22:57:00.152Z,101533.75
2022-10-04T22:59:40.231Z,101537.44
2022-10-04T23:02:13.592Z,101541.88
2022-10-04T23:04:44.089Z,101535.88
2022-10-04T23:07:11.090Z,101539.44
2022-10-04T23:09:37.955Z,101540.31
2022-10-04T23:12:07.557Z,101540.41
2022-10-04T23:14:39.443Z,101546.47
2022-10-04T23:17:16.771Z,101538.56
2022-10-04T23:19:43.978Z,101534.44
2022-10-04T23:22:17.223Z,101534.34
2022-10-04T23:24:44.507Z,101542.81
2022-10-04T23:27:16.307Z,101541.41
2022-10-04T23:29:45.640Z,101529.22
2022-10-04T23:32:15.802Z,101529.16
2022-10-04T23:34:45.959Z,101544.56
2022-10-04T23:37:20.377Z,101541.69
2022-10-04T23:39:47.337Z,101540.88
2022-10-04T23:42:34.406Z,101535.78
2022-10-04T23:45:02.214Z,101532.56
2022-10-04T23:47:37.121Z,101535.97
2022-10-04T23:50:18.553Z,101533.38
2022-10-04T23:52:45.717Z,101534.50
2022-10-04T23:55:22.348Z,101543.28
2022-10-04T23:57:49.956Z,101546.75
